sensor_id;sensor_type;location;lat;lon;timestamp;P1;durP1;ratioP1;P2;durP2;ratioP2
13208;SDS011;6669;42.678;23.332;2023-07-31T00:00:59;1.90;;;1.80;;
13208;SDS011;6669;42.678;23.332;2023-07-31T00:03:27;1.98;;;1.83;;
13208;SDS011;6669;42.678;23.332;2023-07-31T00:05:55;3.17;;;1.85;;
13208;SDS011;6669;42.678;23.332;2023-07-31T00:08:23;2.40;;;2.00;;
13208;SDS011;6669;42.678;23.332;2023-07-31T00:10:51;2.13;;;1.92;;
13208;SDS011;6669;42.678;23.332;2023-07-31T00:13:20;2.40;;;1.92;;
13208;SDS011;6669;42.678;23.332;2023-07-31T00:15:48;2.00;;;1.80;;
13208;SDS011;6669;42.678;23.332;2023-07-31T00:18:17;2.30;;;2.10;;
13208;SDS011;6669;42.678;23.332;2023-07-31T00:20:45;2.35;;;2.05;;
13208;SDS011;6669;42.678;23.332;2023-07-31T00:23:13;3.03;;;2.05;;
13208;SDS011;6669;42.678;23.332;2023-07-31T00:25:41;3.67;;;2.25;;
13208;SDS011;6669;42.678;23.332;2023-07-31T00:28:09;2.53;;;2.20;;
13208;SDS011;6669;42.678;23.332;2023-07-31T00:30:37;2.60;;;2.40;;
13208;SDS011;6669;42.678;23.332;2023-07-31T00:33:05;2.42;;;2.22;;
13208;SDS011;6669;42.678;23.332;2023-07-31T00:35:35;2.70;;;2.50;;
13208;SDS011;6669;42.678;23.332;2023-07-31T00:38:03;2.70;;;2.50;;
13208;SDS011;6669;42.678;23.332;2023-07-31T00:40:34;2.50;;;2.30;;
13208;SDS011;6669;42.678;23.332;2023-07-31T00:43:03;2.83;;;2.63;;
13208;SDS011;6669;42.678;23.332;2023-07-31T00:45:31;3.03;;;2.72;;
13208;SDS011;6669;42.678;23.332;2023-07-31T00:48:00;3.20;;;2.90;;
13208;SDS011;6669;42.678;23.332;2023-07-31T00:50:29;2.90;;;2.70;;
13208;SDS011;6669;42.678;23.332;2023-07-31T00:52:59;3.47;;;3.17;;
13208;SDS011;6669;42.678;23.332;2023-07-31T00:55:27;4.57;;;3.47;;
13208;SDS011;6669;42.678;23.332;2023-07-31T00:57:55;4.15;;;3.75;;
13208;SDS011;6669;42.678;23.332;2023-07-31T01:00:23;4.20;;;3.80;;
13208;SDS011;6669;42.678;23.332;2023-07-31T01:02:51;3.80;;;3.50;;
13208;SDS011;6669;42.678;23.332;2023-07-31T01:05:31;4.60;;;4.20;;
13208;SDS011;6669;42.678;23.332;2023-07-31T01:08:21;4.35;;;3.95;;
13208;SDS011;6669;42.678;23.332;2023-07-31T01:10:56;4.35;;;3.95;;
13208;SDS011;6669;42.678;23.332;2023-07-31T01:13:28;4.00;;;3.70;;
13208;SDS011;6669;42.678;23.332;2023-07-31T01:15:57;5.00;;;4.57;;
13208;SDS011;6669;42.678;23.332;2023-07-31T01:18:25;5.57;;;5.03;;
13208;SDS011;6669;42.678;23.332;2023-07-31T01:20:54;6.03;;;5.43;;
13208;SDS011;6669;42.678;23.332;2023-07-31T01:26:33;6.60;;;5.90;;
13208;SDS011;6669;42.678;23.332;2023-07-31T01:29:06;7.07;;;6.38;;
13208;SDS011;6669;42.678;23.332;2023-07-31T01:31:37;6.50;;;5.90;;
13208;SDS011;6669;42.678;23.332;2023-07-31T01:34:07;7.32;;;6.55;;
13208;SDS011;6669;42.678;23.332;2023-07-31T01:36:37;7.95;;;6.97;;
13208;SDS011;6669;42.678;23.332;2023-07-31T01:39:06;8.98;;;7.75;;
13208;SDS011;6669;42.678;23.332;2023-07-31T01:41:35;8.25;;;7.45;;
13208;SDS011;6669;42.678;23.332;2023-07-31T01:44:04;8.85;;;7.90;;
13208;SDS011;6669;42.678;23.332;2023-07-31T01:46:32;7.90;;;7.10;;
13208;SDS011;6669;42.678;23.332;2023-07-31T01:49:00;9.13;;;8.23;;
13208;SDS011;6669;42.678;23.332;2023-07-31T01:51:29;9.57;;;8.57;;
13208;SDS011;6669;42.678;23.332;2023-07-31T01:54:00;10.30;;;8.57;;
13208;SDS011;6669;42.678;23.332;2023-07-31T01:56:28;10.77;;;9.68;;
13208;SDS011;6669;42.678;23.332;2023-07-31T01:58:58;11.18;;;9.05;;
13208;SDS011;6669;42.678;23.332;2023-07-31T02:01:26;10.52;;;9.43;;
13208;SDS011;6669;42.678;23.332;2023-07-31T02:03:54;10.48;;;9.38;;
13208;SDS011;6669;42.678;23.332;2023-07-31T02:06:22;10.20;;;9.20;;
13208;SDS011;6669;42.678;23.332;2023-07-31T02:08:50;10.85;;;9.63;;
13208;SDS011;6669;42.678;23.332;2023-07-31T02:11:18;12.98;;;9.65;;
13208;SDS011;6669;42.678;23.332;2023-07-31T02:13:46;11.43;;;10.25;;
13208;SDS011;6669;42.678;23.332;2023-07-31T02:16:15;10.95;;;9.75;;
13208;SDS011;6669;42.678;23.332;2023-07-31T02:18:43;11.57;;;10.30;;
13208;SDS011;6669;42.678;23.332;2023-07-31T02:21:11;11.35;;;9.30;;
13208;SDS011;6669;42.678;23.332;2023-07-31T02:23:39;12.05;;;10.23;;
13208;SDS011;6669;42.678;23.332;2023-07-31T02:26:07;12.68;;;11.02;;
13208;SDS011;6669;42.678;23.332;2023-07-31T02:28:35;11.93;;;10.43;;
13208;SDS011;6669;42.678;23.332;2023-07-31T02:31:03;11.77;;;10.55;;
13208;SDS011;6669;42.678;23.332;2023-07-31T02:33:33;11.00;;;9.85;;
13208;SDS011;6669;42.678;23.332;2023-07-31T02:36:01;11.40;;;10.30;;
13208;SDS011;6669;42.678;23.332;2023-07-31T02:38:29;11.30;;;9.35;;
13208;SDS011;6669;42.678;23.332;2023-07-31T02:40:57;11.30;;;10.20;;
13208;SDS011;6669;42.678;23.332;2023-07-31T02:43:25;11.88;;;10.68;;
13208;SDS011;6669;42.678;23.332;2023-07-31T02:45:53;11.63;;;10.43;;
13208;SDS011;6669;42.678;23.332;2023-07-31T02:48:21;11.52;;;10.32;;
13208;SDS011;6669;42.678;23.332;2023-07-31T02:50:50;11.60;;;10.40;;
13208;SDS011;6669;42.678;23.332;2023-07-31T02:53:18;10.70;;;9.60;;
13208;SDS011;6669;42.678;23.332;2023-07-31T02:55:46;10.65;;;9.38;;
13208;SDS011;6669;42.678;23.332;2023-07-31T02:58:14;10.70;;;9.60;;
13208;SDS011;6669;42.678;23.332;2023-07-31T03:00:42;11.18;;;9.95;;
13208;SDS011;6669;42.678;23.332;2023-07-31T03:03:10;11.30;;;10.18;;
13208;SDS011;6669;42.678;23.332;2023-07-31T03:05:38;11.35;;;9.35;;
13208;SDS011;6669;42.678;23.332;2023-07-31T03:08:08;10.43;;;9.43;;
13208;SDS011;6669;42.678;23.332;2023-07-31T03:10:36;11.00;;;9.35;;
13208;SDS011;6669;42.678;23.332;2023-07-31T03:13:04;10.30;;;9.20;;
13208;SDS011;6669;42.678;23.332;2023-07-31T03:15:32;10.50;;;9.40;;
13208;SDS011;6669;42.678;23.332;2023-07-31T03:18:00;10.80;;;9.68;;
13208;SDS011;6669;42.678;23.332;2023-07-31T03:20:28;12.07;;;9.88;;
13208;SDS011;6669;42.678;23.332;2023-07-31T03:22:56;13.30;;;10.27;;
13208;SDS011;6669;42.678;23.332;2023-07-31T03:25:25;10.63;;;9.52;;
13208;SDS011;6669;42.678;23.332;2023-07-31T03:27:53;10.30;;;9.20;;
13208;SDS011;6669;42.678;23.332;2023-07-31T03:30:22;11.10;;;10.00;;
13208;SDS011;6669;42.678;23.332;2023-07-31T03:32:49;11.48;;;10.13;;
13208;SDS011;6669;42.678;23.332;2023-07-31T03:35:18;10.63;;;9.50;;
13208;SDS011;6669;42.678;23.332;2023-07-31T03:37:46;10.93;;;9.82;;
13208;SDS011;6669;42.678;23.332;2023-07-31T03:40:14;10.50;;;9.40;;
13208;SDS011;6669;42.678;23.332;2023-07-31T03:42:43;11.60;;;10.32;;
13208;SDS011;6669;42.678;23.332;2023-07-31T03:45:11;10.60;;;9.50;;
13208;SDS011;6669;42.678;23.332;2023-07-31T03:47:39;10.77;;;9.68;;
13208;SDS011;6669;42.678;23.332;2023-07-31T03:50:07;11.55;;;10.18;;
13208;SDS011;6669;42.678;23.332;2023-07-31T03:52:35;12.45;;;10.30;;
13208;SDS011;6669;42.678;23.332;2023-07-31T03:55:04;11.70;;;9.98;;
13208;SDS011;6669;42.678;23.332;2023-07-31T03:57:32;12.00;;;10.60;;
13208;SDS011;6669;42.678;23.332;2023-07-31T04:00:02;11.45;;;10.25;;
13208;SDS011;6669;42.678;23.332;2023-07-31T04:02:31;12.90;;;11.10;;
13208;SDS011;6669;42.678;23.332;2023-07-31T04:04:59;11.85;;;10.65;;
13208;SDS011;6669;42.678;23.332;2023-07-31T04:07:27;11.82;;;10.15;;
13208;SDS011;6669;42.678;23.332;2023-07-31T04:09:56;11.18;;;9.98;;
13208;SDS011;6669;42.678;23.332;2023-07-31T04:12:25;13.07;;;10.73;;
13208;SDS011;6669;42.678;23.332;2023-07-31T04:14:53;10.57;;;9.45;;
13208;SDS011;6669;42.678;23.332;2023-07-31T04:17:22;11.65;;;10.20;;
13208;SDS011;6669;42.678;23.332;2023-07-31T04:19:51;10.82;;;9.68;;
13208;SDS011;6669;42.678;23.332;2023-07-31T04:22:19;12.15;;;10.85;;
13208;SDS011;6669;42.678;23.332;2023-07-31T04:24:47;12.95;;;10.80;;
13208;SDS011;6669;42.678;23.332;2023-07-31T04:27:15;12.35;;;9.88;;
13208;SDS011;6669;42.678;23.332;2023-07-31T04:29:43;10.85;;;9.60;;
13208;SDS011;6669;42.678;23.332;2023-07-31T04:32:13;12.40;;;10.32;;
13208;SDS011;6669;42.678;23.332;2023-07-31T04:34:44;12.63;;;10.25;;
13208;SDS011;6669;42.678;23.332;2023-07-31T04:37:12;13.57;;;11.32;;
13208;SDS011;6669;42.678;23.332;2023-07-31T04:39:40;12.35;;;10.88;;
13208;SDS011;6669;42.678;23.332;2023-07-31T04:42:08;13.20;;;10.93;;
13208;SDS011;6669;42.678;23.332;2023-07-31T04:44:36;10.90;;;8.93;;
13208;SDS011;6669;42.678;23.332;2023-07-31T04:47:05;12.02;;;9.88;;
13208;SDS011;6669;42.678;23.332;2023-07-31T04:49:33;12.57;;;10.15;;
13208;SDS011;6669;42.678;23.332;2023-07-31T04:52:02;10.60;;;9.48;;
13208;SDS011;6669;42.678;23.332;2023-07-31T04:54:31;12.13;;;10.27;;
13208;SDS011;6669;42.678;23.332;2023-07-31T04:56:59;11.05;;;9.85;;
13208;SDS011;6669;42.678;23.332;2023-07-31T04:59:27;13.38;;;10.60;;
13208;SDS011;6669;42.678;23.332;2023-07-31T05:01:56;10.02;;;8.65;;
13208;SDS011;6669;42.678;23.332;2023-07-31T05:04:24;11.88;;;9.77;;
13208;SDS011;6669;42.678;23.332;2023-07-31T05:06:52;11.82;;;10.02;;
13208;SDS011;6669;42.678;23.332;2023-07-31T05:09:21;10.93;;;9.27;;
13208;SDS011;6669;42.678;23.332;2023-07-31T05:11:49;11.27;;;10.10;;
13208;SDS011;6669;42.678;23.332;2023-07-31T05:14:17;11.13;;;9.73;;
13208;SDS011;6669;42.678;23.332;2023-07-31T05:16:46;9.98;;;8.95;;
13208;SDS011;6669;42.678;23.332;2023-07-31T05:19:14;9.80;;;8.90;;
13208;SDS011;6669;42.678;23.332;2023-07-31T05:21:43;10.10;;;9.02;;
13208;SDS011;6669;42.678;23.332;2023-07-31T05:24:11;10.70;;;8.40;;
13208;SDS011;6669;42.678;23.332;2023-07-31T05:26:40;8.38;;;7.47;;
13208;SDS011;6669;42.678;23.332;2023-07-31T05:29:08;9.90;;;7.90;;
13208;SDS011;6669;42.678;23.332;2023-07-31T05:31:36;8.25;;;7.38;;
13208;SDS011;6669;42.678;23.332;2023-07-31T05:34:05;7.85;;;7.15;;
13208;SDS011;6669;42.678;23.332;2023-07-31T05:36:33;7.30;;;6.60;;
13208;SDS011;6669;42.678;23.332;2023-07-31T05:39:02;8.00;;;7.03;;
13208;SDS011;6669;42.678;23.332;2023-07-31T05:41:33;7.70;;;7.00;;
13208;SDS011;6669;42.678;23.332;2023-07-31T05:44:04;7.38;;;6.68;;
13208;SDS011;6669;42.678;23.332;2023-07-31T05:46:32;7.43;;;6.72;;
13208;SDS011;6669;42.678;23.332;2023-07-31T05:49:01;5.70;;;5.20;;
13208;SDS011;6669;42.678;23.332;2023-07-31T05:51:29;6.68;;;5.05;;
13208;SDS011;6669;42.678;23.332;2023-07-31T05:53:57;5.65;;;5.10;;
13208;SDS011;6669;42.678;23.332;2023-07-31T05:56:25;5.63;;;5.07;;
13208;SDS011;6669;42.678;23.332;2023-07-31T05:58:53;5.57;;;5.07;;
13208;SDS011;6669;42.678;23.332;2023-07-31T06:01:22;6.07;;;4.72;;
13208;SDS011;6669;42.678;23.332;2023-07-31T06:03:51;4.88;;;4.38;;
13208;SDS011;6669;42.678;23.332;2023-07-31T06:06:19;5.80;;;4.68;;
13208;SDS011;6669;42.678;23.332;2023-07-31T06:08:47;4.15;;;3.78;;
13208;SDS011;6669;42.678;23.332;2023-07-31T06:11:16;4.45;;;3.75;;
13208;SDS011;6669;42.678;23.332;2023-07-31T06:13:44;3.97;;;3.58;;
13208;SDS011;6669;42.678;23.332;2023-07-31T06:16:14;4.50;;;3.20;;
13208;SDS011;6669;42.678;23.332;2023-07-31T06:18:44;4.03;;;3.53;;
13208;SDS011;6669;42.678;23.332;2023-07-31T06:21:12;3.97;;;3.63;;
13208;SDS011;6669;42.678;23.332;2023-07-31T06:23:41;3.60;;;3.30;;
13208;SDS011;6669;42.678;23.332;2023-07-31T06:26:09;3.13;;;2.90;;
13208;SDS011;6669;42.678;23.332;2023-07-31T06:28:37;2.90;;;2.70;;
13208;SDS011;6669;42.678;23.332;2023-07-31T06:31:05;2.88;;;2.67;;
13208;SDS011;6669;42.678;23.332;2023-07-31T06:33:34;3.13;;;2.85;;
13208;SDS011;6669;42.678;23.332;2023-07-31T06:36:03;3.08;;;2.80;;
13208;SDS011;6669;42.678;23.332;2023-07-31T06:38:32;3.33;;;3.03;;
13208;SDS011;6669;42.678;23.332;2023-07-31T06:41:00;2.78;;;2.58;;
13208;SDS011;6669;42.678;23.332;2023-07-31T06:43:28;2.83;;;2.60;;
13208;SDS011;6669;42.678;23.332;2023-07-31T06:45:56;3.67;;;3.38;;
13208;SDS011;6669;42.678;23.332;2023-07-31T06:48:24;3.55;;;2.42;;
13208;SDS011;6669;42.678;23.332;2023-07-31T06:50:52;3.17;;;2.88;;
13208;SDS011;6669;42.678;23.332;2023-07-31T06:53:21;3.30;;;2.53;;
13208;SDS011;6669;42.678;23.332;2023-07-31T06:55:49;3.85;;;3.20;;
13208;SDS011;6669;42.678;23.332;2023-07-31T06:58:18;2.53;;;2.15;;
13208;SDS011;6669;42.678;23.332;2023-07-31T07:00:46;3.40;;;2.65;;
13208;SDS011;6669;42.678;23.332;2023-07-31T07:03:16;3.42;;;2.40;;
13208;SDS011;6669;42.678;23.332;2023-07-31T07:05:45;2.92;;;2.47;;
13208;SDS011;6669;42.678;23.332;2023-07-31T07:08:13;2.75;;;2.42;;
13208;SDS011;6669;42.678;23.332;2023-07-31T07:10:44;4.28;;;2.53;;
13208;SDS011;6669;42.678;23.332;2023-07-31T07:13:12;2.80;;;2.33;;
13208;SDS011;6669;42.678;23.332;2023-07-31T07:15:40;2.50;;;2.30;;
13208;SDS011;6669;42.678;23.332;2023-07-31T07:18:08;2.53;;;2.20;;
13208;SDS011;6669;42.678;23.332;2023-07-31T07:20:37;2.55;;;2.35;;
13208;SDS011;6669;42.678;23.332;2023-07-31T07:23:05;2.35;;;2.15;;
13208;SDS011;6669;42.678;23.332;2023-07-31T07:25:37;2.05;;;1.95;;
13208;SDS011;6669;42.678;23.332;2023-07-31T07:28:06;2.50;;;2.30;;
13208;SDS011;6669;42.678;23.332;2023-07-31T07:30:34;2.42;;;2.20;;
13208;SDS011;6669;42.678;23.332;2023-07-31T07:33:03;3.05;;;2.42;;
13208;SDS011;6669;42.678;23.332;2023-07-31T07:35:32;2.40;;;2.20;;
13208;SDS011;6669;42.678;23.332;2023-07-31T07:38:01;2.35;;;2.15;;
13208;SDS011;6669;42.678;23.332;2023-07-31T07:40:29;5.25;;;2.28;;
13208;SDS011;6669;42.678;23.332;2023-07-31T07:42:57;3.03;;;2.40;;
13208;SDS011;6669;42.678;23.332;2023-07-31T07:45:28;2.38;;;2.17;;
13208;SDS011;6669;42.678;23.332;2023-07-31T07:47:56;3.08;;;2.17;;
13208;SDS011;6669;42.678;23.332;2023-07-31T07:50:24;3.70;;;2.03;;
13208;SDS011;6669;42.678;23.332;2023-07-31T07:52:52;1.80;;;1.70;;
13208;SDS011;6669;42.678;23.332;2023-07-31T07:55:20;2.47;;;2.25;;
13208;SDS011;6669;42.678;23.332;2023-07-31T07:57:49;2.75;;;2.10;;
13208;SDS011;6669;42.678;23.332;2023-07-31T08:00:17;2.30;;;2.10;;
13208;SDS011;6669;42.678;23.332;2023-07-31T08:02:47;1.80;;;1.70;;
13208;SDS011;6669;42.678;23.332;2023-07-31T08:05:15;2.45;;;2.10;;
13208;SDS011;6669;42.678;23.332;2023-07-31T08:07:44;2.00;;;1.80;;
13208;SDS011;6669;42.678;23.332;2023-07-31T08:10:13;1.88;;;1.77;;
13208;SDS011;6669;42.678;23.332;2023-07-31T08:12:41;2.60;;;2.15;;
13208;SDS011;6669;42.678;23.332;2023-07-31T08:15:09;2.17;;;1.98;;
13208;SDS011;6669;42.678;23.332;2023-07-31T08:17:37;3.83;;;2.10;;
13208;SDS011;6669;42.678;23.332;2023-07-31T08:20:08;2.70;;;2.08;;
13208;SDS011;6669;42.678;23.332;2023-07-31T08:22:36;2.38;;;2.17;;
13208;SDS011;6669;42.678;23.332;2023-07-31T08:25:05;2.50;;;1.90;;
13208;SDS011;6669;42.678;23.332;2023-07-31T08:27:34;2.40;;;1.90;;
13208;SDS011;6669;42.678;23.332;2023-07-31T08:30:02;2.47;;;2.28;;
13208;SDS011;6669;42.678;23.332;2023-07-31T08:32:31;2.30;;;2.10;;
13208;SDS011;6669;42.678;23.332;2023-07-31T08:34:59;2.40;;;2.00;;
13208;SDS011;6669;42.678;23.332;2023-07-31T08:37:28;2.20;;;2.00;;
13208;SDS011;6669;42.678;23.332;2023-07-31T08:39:56;2.15;;;1.95;;
13208;SDS011;6669;42.678;23.332;2023-07-31T08:42:24;2.42;;;2.22;;
13208;SDS011;6669;42.678;23.332;2023-07-31T08:44:55;3.25;;;2.00;;
13208;SDS011;6669;42.678;23.332;2023-07-31T08:47:23;2.75;;;1.92;;
13208;SDS011;6669;42.678;23.332;2023-07-31T08:49:52;1.98;;;1.80;;
13208;SDS011;6669;42.678;23.332;2023-07-31T08:52:20;2.20;;;2.00;;
13208;SDS011;6669;42.678;23.332;2023-07-31T08:54:50;1.98;;;1.77;;
13208;SDS011;6669;42.678;23.332;2023-07-31T08:57:18;2.47;;;1.90;;
13208;SDS011;6669;42.678;23.332;2023-07-31T08:59:47;1.88;;;1.77;;
13208;SDS011;6669;42.678;23.332;2023-07-31T09:02:15;2.33;;;1.70;;
13208;SDS011;6669;42.678;23.332;2023-07-31T09:04:46;1.58;;;1.48;;
13208;SDS011;6669;42.678;23.332;2023-07-31T09:07:14;2.10;;;1.65;;
13208;SDS011;6669;42.678;23.332;2023-07-31T09:09:43;2.05;;;1.85;;
13208;SDS011;6669;42.678;23.332;2023-07-31T09:12:14;1.92;;;1.73;;
13208;SDS011;6669;42.678;23.332;2023-07-31T09:14:43;1.80;;;1.70;;
13208;SDS011;6669;42.678;23.332;2023-07-31T09:17:13;3.22;;;2.00;;
13208;SDS011;6669;42.678;23.332;2023-07-31T09:19:44;1.98;;;1.88;;
13208;SDS011;6669;42.678;23.332;2023-07-31T09:22:12;2.10;;;1.90;;
13208;SDS011;6669;42.678;23.332;2023-07-31T09:24:40;1.95;;;1.80;;
13208;SDS011;6669;42.678;23.332;2023-07-31T09:27:08;3.10;;;1.83;;
13208;SDS011;6669;42.678;23.332;2023-07-31T09:29:38;2.17;;;1.98;;
13208;SDS011;6669;42.678;23.332;2023-07-31T09:32:07;2.20;;;2.00;;
13208;SDS011;6669;42.678;23.332;2023-07-31T09:34:43;2.10;;;1.90;;
13208;SDS011;6669;42.678;23.332;2023-07-31T09:37:11;1.90;;;1.80;;
13208;SDS011;6669;42.678;23.332;2023-07-31T09:39:45;2.00;;;1.90;;
13208;SDS011;6669;42.678;23.332;2023-07-31T09:42:13;2.08;;;1.90;;
13208;SDS011;6669;42.678;23.332;2023-07-31T09:44:52;1.80;;;1.70;;
13208;SDS011;6669;42.678;23.332;2023-07-31T09:47:24;1.90;;;1.80;;
13208;SDS011;6669;42.678;23.332;2023-07-31T09:49:53;2.22;;;2.03;;
13208;SDS011;6669;42.678;23.332;2023-07-31T09:52:21;1.95;;;1.80;;
13208;SDS011;6669;42.678;23.332;2023-07-31T09:54:49;3.15;;;1.70;;
13208;SDS011;6669;42.678;23.332;2023-07-31T09:57:17;1.70;;;1.60;;
13208;SDS011;6669;42.678;23.332;2023-07-31T09:59:49;2.05;;;1.77;;
13208;SDS011;6669;42.678;23.332;2023-07-31T10:02:22;1.75;;;1.65;;
13208;SDS011;6669;42.678;23.332;2023-07-31T10:04:50;2.70;;;1.60;;
13208;SDS011;6669;42.678;23.332;2023-07-31T10:07:19;2.05;;;1.60;;
13208;SDS011;6669;42.678;23.332;2023-07-31T10:09:50;2.28;;;1.80;;
13208;SDS011;6669;42.678;23.332;2023-07-31T10:12:20;2.78;;;1.60;;
13208;SDS011;6669;42.678;23.332;2023-07-31T10:14:51;1.50;;;1.40;;
13208;SDS011;6669;42.678;23.332;2023-07-31T10:17:23;1.67;;;1.58;;
13208;SDS011;6669;42.678;23.332;2023-07-31T10:19:52;1.48;;;1.38;;
13208;SDS011;6669;42.678;23.332;2023-07-31T10:22:21;2.25;;;1.45;;
13208;SDS011;6669;42.678;23.332;2023-07-31T10:24:49;2.22;;;1.55;;
13208;SDS011;6669;42.678;23.332;2023-07-31T10:27:19;1.52;;;1.42;;
13208;SDS011;6669;42.678;23.332;2023-07-31T10:29:48;1.63;;;1.20;;
13208;SDS011;6669;42.678;23.332;2023-07-31T10:32:17;2.60;;;1.50;;
13208;SDS011;6669;42.678;23.332;2023-07-31T10:34:47;2.20;;;1.40;;
13208;SDS011;6669;42.678;23.332;2023-07-31T10:37:20;1.50;;;1.40;;
13208;SDS011;6669;42.678;23.332;2023-07-31T10:39:56;1.50;;;1.40;;
13208;SDS011;6669;42.678;23.332;2023-07-31T10:42:32;1.65;;;1.55;;
13208;SDS011;6669;42.678;23.332;2023-07-31T10:45:02;1.70;;;1.60;;
13208;SDS011;6669;42.678;23.332;2023-07-31T10:47:36;1.48;;;1.38;;
13208;SDS011;6669;42.678;23.332;2023-07-31T10:50:13;1.50;;;1.40;;
13208;SDS011;6669;42.678;23.332;2023-07-31T10:52:44;1.58;;;1.45;;
13208;SDS011;6669;42.678;23.332;2023-07-31T10:55:16;1.40;;;1.30;;
13208;SDS011;6669;42.678;23.332;2023-07-31T10:57:52;1.65;;;1.20;;
13208;SDS011;6669;42.678;23.332;2023-07-31T11:00:21;1.45;;;1.30;;
13208;SDS011;6669;42.678;23.332;2023-07-31T11:03:02;1.52;;;1.30;;
13208;SDS011;6669;42.678;23.332;2023-07-31T11:05:42;1.77;;;1.30;;
13208;SDS011;6669;42.678;23.332;2023-07-31T11:08:15;1.30;;;1.20;;
13208;SDS011;6669;42.678;23.332;2023-07-31T11:10:45;1.63;;;1.40;;
13208;SDS011;6669;42.678;23.332;2023-07-31T11:13:14;1.48;;;1.20;;
13208;SDS011;6669;42.678;23.332;2023-07-31T11:15:42;1.20;;;1.10;;
13208;SDS011;6669;42.678;23.332;2023-07-31T11:18:10;1.30;;;1.20;;
13208;SDS011;6669;42.678;23.332;2023-07-31T11:20:38;1.95;;;1.40;;
13208;SDS011;6669;42.678;23.332;2023-07-31T11:23:08;1.85;;;1.58;;
13208;SDS011;6669;42.678;23.332;2023-07-31T11:25:38;3.95;;;1.30;;
13208;SDS011;6669;42.678;23.332;2023-07-31T11:28:08;1.65;;;1.52;;
13208;SDS011;6669;42.678;23.332;2023-07-31T11:30:38;1.02;;;0.90;;
13208;SDS011;6669;42.678;23.332;2023-07-31T11:33:07;1.20;;;1.10;;
13208;SDS011;6669;42.678;23.332;2023-07-31T11:35:41;1.10;;;1.10;;
13208;SDS011;6669;42.678;23.332;2023-07-31T11:38:16;2.03;;;1.40;;
13208;SDS011;6669;42.678;23.332;2023-07-31T11:40:49;1.30;;;1.20;;
13208;SDS011;6669;42.678;23.332;2023-07-31T11:43:18;1.67;;;1.40;;
13208;SDS011;6669;42.678;23.332;2023-07-31T11:45:47;1.48;;;1.20;;
13208;SDS011;6669;42.678;23.332;2023-07-31T11:48:20;5.53;;;4.72;;
13208;SDS011;6669;42.678;23.332;2023-07-31T11:50:50;1.73;;;1.60;;
13208;SDS011;6669;42.678;23.332;2023-07-31T11:53:23;1.70;;;1.60;;
13208;SDS011;6669;42.678;23.332;2023-07-31T11:55:54;1.60;;;1.50;;
13208;SDS011;6669;42.678;23.332;2023-07-31T11:58:23;1.73;;;1.63;;
13208;SDS011;6669;42.678;23.332;2023-07-31T12:00:51;1.67;;;1.58;;
13208;SDS011;6669;42.678;23.332;2023-07-31T12:03:20;1.92;;;1.80;;
13208;SDS011;6669;42.678;23.332;2023-07-31T12:05:48;2.13;;;1.42;;
13208;SDS011;6669;42.678;23.332;2023-07-31T12:08:16;1.73;;;1.63;;
13208;SDS011;6669;42.678;23.332;2023-07-31T12:10:51;2.20;;;2.00;;
13208;SDS011;6669;42.678;23.332;2023-07-31T12:13:20;1.77;;;1.67;;
13208;SDS011;6669;42.678;23.332;2023-07-31T12:15:53;2.30;;;2.10;;
13208;SDS011;6669;42.678;23.332;2023-07-31T12:18:22;2.50;;;2.30;;
13208;SDS011;6669;42.678;23.332;2023-07-31T12:20:53;2.42;;;2.25;;
13208;SDS011;6669;42.678;23.332;2023-07-31T12:23:24;2.65;;;2.38;;
13208;SDS011;6669;42.678;23.332;2023-07-31T12:26:02;3.25;;;3.00;;
13208;SDS011;6669;42.678;23.332;2023-07-31T12:28:34;3.30;;;3.08;;
13208;SDS011;6669;42.678;23.332;2023-07-31T12:31:04;3.10;;;2.90;;
13208;SDS011;6669;42.678;23.332;2023-07-31T12:33:33;3.35;;;3.05;;
13208;SDS011;6669;42.678;23.332;2023-07-31T12:36:03;2.83;;;2.63;;
13208;SDS011;6669;42.678;23.332;2023-07-31T12:38:32;2.47;;;2.22;;
13208;SDS011;6669;42.678;23.332;2023-07-31T12:41:02;2.72;;;2.30;;
13208;SDS011;6669;42.678;23.332;2023-07-31T12:43:32;2.25;;;2.00;;
13208;SDS011;6669;42.678;23.332;2023-07-31T12:46:01;2.60;;;2.40;;
13208;SDS011;6669;42.678;23.332;2023-07-31T12:48:32;2.90;;;2.70;;
13208;SDS011;6669;42.678;23.332;2023-07-31T12:51:00;4.07;;;2.53;;
13208;SDS011;6669;42.678;23.332;2023-07-31T12:53:28;3.35;;;2.83;;
13208;SDS011;6669;42.678;23.332;2023-07-31T12:55:57;3.38;;;3.08;;
13208;SDS011;6669;42.678;23.332;2023-07-31T12:58:26;3.22;;;3.03;;
13208;SDS011;6669;42.678;23.332;2023-07-31T13:00:54;3.20;;;2.90;;
13208;SDS011;6669;42.678;23.332;2023-07-31T13:03:23;4.57;;;2.72;;
13208;SDS011;6669;42.678;23.332;2023-07-31T13:05:51;3.97;;;2.95;;
13208;SDS011;6669;42.678;23.332;2023-07-31T13:08:19;3.20;;;2.90;;
13208;SDS011;6669;42.678;23.332;2023-07-31T13:10:47;3.70;;;3.30;;
13208;SDS011;6669;42.678;23.332;2023-07-31T13:13:15;3.13;;;2.90;;
13208;SDS011;6669;42.678;23.332;2023-07-31T13:15:45;4.72;;;2.80;;
13208;SDS011;6669;42.678;23.332;2023-07-31T13:18:13;2.95;;;2.70;;
13208;SDS011;6669;42.678;23.332;2023-07-31T13:20:41;5.05;;;3.05;;
13208;SDS011;6669;42.678;23.332;2023-07-31T13:23:09;3.00;;;2.60;;
13208;SDS011;6669;42.678;23.332;2023-07-31T13:25:37;3.08;;;2.78;;
13208;SDS011;6669;42.678;23.332;2023-07-31T13:28:05;3.15;;;2.80;;
13208;SDS011;6669;42.678;23.332;2023-07-31T13:30:33;2.92;;;2.70;;
13208;SDS011;6669;42.678;23.332;2023-07-31T13:33:02;3.38;;;2.75;;
13208;SDS011;6669;42.678;23.332;2023-07-31T13:35:32;2.85;;;2.65;;
13208;SDS011;6669;42.678;23.332;2023-07-31T13:38:00;2.10;;;2.00;;
13208;SDS011;6669;42.678;23.332;2023-07-31T13:40:28;2.63;;;2.42;;
13208;SDS011;6669;42.678;23.332;2023-07-31T13:42:56;2.50;;;2.30;;
13208;SDS011;6669;42.678;23.332;2023-07-31T13:45:24;2.40;;;2.20;;
13208;SDS011;6669;42.678;23.332;2023-07-31T13:47:52;2.60;;;2.40;;
13208;SDS011;6669;42.678;23.332;2023-07-31T13:50:22;2.92;;;2.42;;
13208;SDS011;6669;42.678;23.332;2023-07-31T13:52:51;2.42;;;2.22;;
13208;SDS011;6669;42.678;23.332;2023-07-31T13:55:19;2.58;;;2.38;;
13208;SDS011;6669;42.678;23.332;2023-07-31T13:57:48;2.92;;;2.00;;
13208;SDS011;6669;42.678;23.332;2023-07-31T14:00:16;2.80;;;2.50;;
13208;SDS011;6669;42.678;23.332;2023-07-31T14:02:44;2.45;;;2.25;;
13208;SDS011;6669;42.678;23.332;2023-07-31T14:05:12;2.47;;;2.10;;
13208;SDS011;6669;42.678;23.332;2023-07-31T14:07:41;2.50;;;2.30;;
13208;SDS011;6669;42.678;23.332;2023-07-31T14:10:09;2.63;;;2.33;;
13208;SDS011;6669;42.678;23.332;2023-07-31T14:12:38;2.60;;;2.40;;
13208;SDS011;6669;42.678;23.332;2023-07-31T14:15:09;2.53;;;2.33;;
13208;SDS011;6669;42.678;23.332;2023-07-31T14:17:38;2.60;;;2.40;;
13208;SDS011;6669;42.678;23.332;2023-07-31T14:20:07;2.70;;;2.50;;
13208;SDS011;6669;42.678;23.332;2023-07-31T14:22:36;3.53;;;2.58;;
13208;SDS011;6669;42.678;23.332;2023-07-31T14:25:06;2.60;;;2.40;;
13208;SDS011;6669;42.678;23.332;2023-07-31T14:27:36;2.38;;;2.17;;
13208;SDS011;6669;42.678;23.332;2023-07-31T14:30:05;2.80;;;2.60;;
13208;SDS011;6669;42.678;23.332;2023-07-31T14:32:34;2.90;;;2.35;;
13208;SDS011;6669;42.678;23.332;2023-07-31T14:35:03;2.50;;;2.30;;
13208;SDS011;6669;42.678;23.332;2023-07-31T14:37:36;2.28;;;2.15;;
13208;SDS011;6669;42.678;23.332;2023-07-31T14:40:07;2.72;;;2.53;;
13208;SDS011;6669;42.678;23.332;2023-07-31T14:42:36;2.47;;;2.28;;
13208;SDS011;6669;42.678;23.332;2023-07-31T14:45:04;2.38;;;2.17;;
13208;SDS011;6669;42.678;23.332;2023-07-31T14:47:33;3.08;;;1.90;;
13208;SDS011;6669;42.678;23.332;2023-07-31T14:50:02;2.88;;;2.20;;
13208;SDS011;6669;42.678;23.332;2023-07-31T14:52:31;2.33;;;2.13;;
13208;SDS011;6669;42.678;23.332;2023-07-31T14:54:59;2.40;;;2.20;;
13208;SDS011;6669;42.678;23.332;2023-07-31T14:57:28;2.20;;;2.10;;